Time;durP1;ratioP1;P1;durP2;ratioP2;P2;SDS_P1;SDS_P2;PMS_P1;PMS_P2;Temp;Humidity;BMP_temperature;BMP_pressure;BME280_temperature;BME280_humidity;BME280_pressure;Samples;Min_cycle;Max_cycle;Signal;HPM_P1;HPM_P2
2023/03/22 00:02:18;;;;;;;;;;;;;;;-145.06;100.00;60892.56;4785036;29;19914;-91
2023/03/22 00:04:57;;;;;;;;;;;;;;;-145.06;100.00;60892.56;4808530;28;19962;-91
2023/03/22 00:07:36;;;;;;;;;;;;;;;-145.06;100.00;60892.56;4795307;28;19922;-90
2023/03/22 00:10:15;;;;;;;;;;;;;;;-145.06;100.00;60892.56;4790700;29;20001;-91
2023/03/22 00:12:54;;;;;;;;;;;;;;;-145.06;100.00;60892.56;4779857;29;19919;-91
2023/03/22 00:15:33;;;;;;;;;;;;;;;-145.06;100.00;60892.56;4777364;29;20332;-91
2023/03/22 00:18:13;;;;;;;;;;;;;;;-145.06;100.00;60892.56;4791305;28;19918;-90
2023/03/22 00:20:53;;;;;;;;;;;;;;;-145.06;100.00;60892.56;4792838;28;19972;-90
2023/03/22 00:23:32;;;;;;;;;;;;;;;-145.06;100.00;60892.56;4795495;28;20399;-89
2023/03/22 00:26:12;;;;;;;;;;;;;;;-145.06;100.00;60892.56;4791320;28;19922;-90
2023/03/22 00:28:51;;;;;;;;;;;;;;;-145.06;100.00;60892.56;4794895;28;19958;-90
2023/03/22 00:31:30;;;;;;;;;;;;;;;-145.06;100.00;60892.56;4793501;28;19918;-90
2023/03/22 00:34:09;;;;;;;;;;;;;;;-145.06;100.00;60892.56;4794571;28;19945;-90
2023/03/22 00:36:48;;;;;;;;;;;;;;;-145.06;100.00;60892.56;4793763;28;19914;-91
2023/03/22 00:39:27;;;;;;;;;;;;;;;-145.06;100.00;60892.56;4795295;28;20013;-91
2023/03/22 00:42:06;;;;;;;;;;;;;;;-145.06;100.00;60892.56;4791409;28;19918;-91
2023/03/22 00:44:45;;;;;;;;;;;;;;;-145.06;100.00;60892.56;4795170;28;20400;-91
2023/03/22 00:47:24;;;;;;;;;;;;;;;-145.06;100.00;60892.56;4794435;28;19918;-93
2023/03/22 00:50:03;;;;;;;;;;;;;;;-145.06;100.00;60892.56;4808873;28;19918;-90
2023/03/22 00:52:42;;;;;;;;;;;;;;;-145.06;100.00;60892.56;4793251;28;19989;-91
2023/03/22 00:55:21;;;;;;;;;;;;;;;-145.06;100.00;60892.56;4795179;28;19918;-90
2023/03/22 00:58:00;;;;;;;;;;;;;;;-145.06;100.00;60892.56;4793604;28;19918;-91
2023/03/22 01:00:39;;;;;;;;;;;;;;;-145.06;100.00;60892.56;4793895;28;19922;-90
2023/03/22 01:03:20;;;;;;;;;;;;;;;-145.06;100.00;60892.56;4797038;28;19914;-89
2023/03/22 01:05:59;;;;;;;;;;;;;;;-145.06;100.00;60892.56;4801360;28;19915;-91
2023/03/22 01:08:38;;;;;;;;;;;;;;;-145.06;100.00;60892.56;4781629;28;19926;-92
2023/03/22 01:11:18;;;;;;;;;;;;;;;-145.06;100.00;60892.56;4785501;28;19961;-91
2023/03/22 01:13:58;;;;;;;;;;;;;;;-145.06;100.00;60892.56;4794119;28;19922;-91
2023/03/22 01:16:37;;;;;;;;;;;;;;;-145.06;100.00;60892.56;4793941;28;19970;-90
2023/03/22 01:19:16;;;;;;;;;;;;;;;-145.06;100.00;60892.56;4786781;28;19978;-90
2023/03/22 01:21:56;;;;;;;;;;;;;;;-145.06;100.00;60892.56;4796557;28;19922;-91
2023/03/22 01:24:35;;;;;;;;;;;;;;;-145.06;100.00;60892.56;4789508;29;19914;-90
2023/03/22 01:27:14;;;;;;;;;;;;;;;-145.06;100.00;60892.56;4786350;28;19918;-89
2023/03/22 01:29:53;;;;;;;;;;;;;;;-145.06;100.00;60892.56;4788285;28;19918;-89
2023/03/22 01:32:32;;;;;;;;;;;;;;;-145.06;100.00;60892.56;4812562;28;19948;-91
2023/03/22 01:35:11;;;;;;;;;;;;;;;-145.06;100.00;60892.56;4795433;28;20619;-91
2023/03/22 01:37:50;;;;;;;;;;;;;;;-145.06;100.00;60892.56;4807991;28;19922;-90
2023/03/22 01:40:29;;;;;;;;;;;;;;;-145.06;100.00;60892.56;4781850;28;20005;-89
2023/03/22 01:43:13;;;;;;;;;;;;;;;-145.06;100.00;60892.56;4795014;28;19957;-90
2023/03/22 01:45:52;;;;;;;;;;;;;;;-145.06;100.00;60892.56;4793993;28;19914;-91
2023/03/22 01:48:37;;;;;;;;;;;;;;;-145.06;100.00;60892.56;4801475;28;19927;-91
2023/03/22 01:51:21;;;;;;;;;;;;;;;-145.06;100.00;60892.56;4796948;28;19997;-90
2023/03/22 01:54:03;;;;;;;;;;;;;;;-145.06;100.00;60892.56;4794059;28;19919;-90
2023/03/22 01:56:43;;;;;;;;;;;;;;;-145.06;100.00;60892.56;4789653;28;19918;-89
2023/03/22 01:59:23;;;;;;;;;;;;;;;-145.06;100.00;60892.56;4790940;28;19957;-90
2023/03/22 02:02:03;;;;;;;;;;;;;;;-145.06;100.00;60892.56;4794154;28;19914;-89
2023/03/22 02:04:43;;;;;;;;;;;;;;;-145.06;100.00;60892.56;4780777;29;20005;-90
2023/03/22 02:07:25;;;;;;;;;;;;;;;-145.06;100.00;60892.56;4788281;28;20368;-89
2023/03/22 02:10:09;;;;;;;;;;;;;;;-145.06;100.00;60892.56;4803400;28;19919;-90
2023/03/22 02:12:58;;;;;;;;;;;;;;;-145.06;100.00;60892.56;4777044;28;20009;-89
2023/03/22 02:15:39;;;;;;;;;;;;;;;-145.06;100.00;60892.56;4782230;28;19918;-90
2023/03/22 02:18:22;;;;;;;;;;;;;;;-145.06;100.00;60892.56;4791534;28;19922;-89
2023/03/22 02:21:07;;;;;;;;;;;;;;;-145.06;100.00;60892.56;4785613;28;19922;-90
2023/03/22 02:23:49;;;;;;;;;;;;;;;-145.06;100.00;60892.56;4793887;28;19974;-89
2023/03/22 02:26:31;;;;;;;;;;;;;;;-145.06;100.00;60892.56;4793205;28;19954;-90
2023/03/22 02:29:51;;;;;;;;;;;;;;;-145.06;100.00;60892.56;4801302;28;20392;-92
2023/03/22 02:32:36;;;;;;;;;;;;;;;-145.06;100.00;60892.56;4714008;29;19920;-90
2023/03/22 02:35:17;;;;;;;;;;;;;;;-145.06;100.00;60892.56;4701175;29;19916;-90
2023/03/22 02:38:13;;;;;;;;;;;;;;;-145.06;100.00;60892.56;4777487;28;19977;-90
2023/03/22 02:41:00;;;;;;;;;;;;;;;-145.06;100.00;60892.56;4790028;28;19915;-90
2023/03/22 02:43:45;;;;;;;;;;;;;;;-145.06;100.00;60892.56;4774904;29;19918;-90
2023/03/22 02:46:29;;;;;;;;;;;;;;;-145.06;100.00;60892.56;4781824;28;19918;-90
2023/03/22 02:49:11;;;;;;;;;;;;;;;-145.06;100.00;60892.56;4793375;28;19918;-91
2023/03/22 02:51:56;;;;;;;;;;;;;;;-145.06;100.00;60892.56;4793460;28;19914;-90
2023/03/22 02:54:40;;;;;;;;;;;;;;;-145.06;100.00;60892.56;4784864;29;19922;-91
2023/03/22 02:57:24;;;;;;;;;;;;;;;-145.06;100.00;60892.56;4788333;28;19918;-90
2023/03/22 03:00:09;;;;;;;;;;;;;;;-145.06;100.00;60892.56;4786278;28;20281;-89
2023/03/22 03:02:51;;;;;;;;;;;;;;;-145.06;100.00;60892.56;4781592;29;19919;-90
2023/03/22 03:05:32;;;;;;;;;;;;;;;-145.06;100.00;60892.56;4802140;28;20504;-90
2023/03/22 03:08:12;;;;;;;;;;;;;;;-145.06;100.00;60892.56;4783459;29;19927;-91
2023/03/22 03:10:52;;;;;;;;;;;;;;;-145.06;100.00;60892.56;4791653;28;19918;-90
2023/03/22 03:13:31;;;;;;;;;;;;;;;-145.06;100.00;60892.56;4792665;28;19926;-91
2023/03/22 03:16:12;;;;;;;;;;;;;;;-145.06;100.00;60892.56;4780234;28;19922;-91
2023/03/22 03:19:06;;;;;;;;;;;;;;;-145.06;100.00;60892.56;4792634;28;19974;-90
2023/03/22 03:22:01;;;;;;;;;;;;;;;-145.06;100.00;60892.56;4792334;28;19918;-90
2023/03/22 03:24:40;;;;;;;;;;;;;;;-145.06;100.00;60892.56;4793178;28;20005;-91
2023/03/22 03:27:28;;;;;;;;;;;;;;;-145.06;100.00;60892.56;4792781;28;19914;-89
2023/03/22 03:30:10;;;;;;;;;;;;;;;-145.06;100.00;60892.56;4792974;28;19926;-90
2023/03/22 03:32:58;;;;;;;;;;;;;;;-145.06;100.00;60892.56;4806662;28;19918;-91
2023/03/22 03:35:40;;;;;;;;;;;;;;;-145.06;100.00;60892.56;4786994;28;20250;-90
2023/03/22 03:38:23;;;;;;;;;;;;;;;-145.06;100.00;60892.56;4792538;28;19914;-90
2023/03/22 03:41:08;;;;;;;;;;;;;;;-145.06;100.00;60892.56;4793403;28;19918;-91
2023/03/22 03:43:48;;;;;;;;;;;;;;;-145.06;100.00;60892.56;4787542;29;19918;-91
2023/03/22 03:46:28;;;;;;;;;;;;;;;-145.06;100.00;60892.56;4790108;28;19922;-92
2023/03/22 03:49:10;;;;;;;;;;;;;;;-145.06;100.00;60892.56;4792904;28;20120;-91
2023/03/22 03:51:51;;;;;;;;;;;;;;;-145.06;100.00;60892.56;4792449;28;20328;-92
2023/03/22 03:54:30;;;;;;;;;;;;;;;-145.06;100.00;60892.56;4792307;28;19926;-90
2023/03/22 03:57:10;;;;;;;;;;;;;;;-145.06;100.00;60892.56;4792286;28;19914;-89
2023/03/22 03:59:49;;;;;;;;;;;;;;;-145.06;100.00;60892.56;4789028;28;19918;-91
2023/03/22 04:02:28;;;;;;;;;;;;;;;-145.06;100.00;60892.56;4782504;28;19914;-89
2023/03/22 04:05:08;;;;;;;;;;;;;;;-145.06;100.00;60892.56;4800279;28;19914;-91
2023/03/22 04:07:47;;;;;;;;;;;;;;;-145.06;100.00;60892.56;4796558;28;19918;-91
2023/03/22 04:10:26;;;;;;;;;;;;;;;-145.06;100.00;60892.56;4796764;28;20369;-90
2023/03/22 04:13:05;;;;;;;;;;;;;;;-145.06;100.00;60892.56;4795614;28;19949;-91
2023/03/22 04:15:44;;;;;;;;;;;;;;;-145.06;100.00;60892.56;4792308;28;20054;-90
2023/03/22 04:18:23;;;;;;;;;;;;;;;-145.06;100.00;60892.56;4795396;28;19914;-90
2023/03/22 04:21:02;;;;;;;;;;;;;;;-145.06;100.00;60892.56;4792079;28;19918;-89
2023/03/22 04:23:45;;;;;;;;;;;;;;;-145.06;100.00;60892.56;4794760;28;19956;-91
2023/03/22 04:26:24;;;;;;;;;;;;;;;-145.06;100.00;60892.56;4794856;28;19957;-90
2023/03/22 04:29:04;;;;;;;;;;;;;;;-145.06;100.00;60892.56;4790776;28;19914;-89
2023/03/22 04:31:43;;;;;;;;;;;;;;;-145.06;100.00;60892.56;4809150;28;19918;-90
2023/03/22 04:34:22;;;;;;;;;;;;;;;-145.06;100.00;60892.56;4790199;28;19914;-89
2023/03/22 04:37:01;;;;;;;;;;;;;;;-145.06;100.00;60892.56;4791967;28;19926;-90
2023/03/22 04:39:40;;;;;;;;;;;;;;;-145.06;100.00;60892.56;4786471;29;20009;-91
2023/03/22 04:42:19;;;;;;;;;;;;;;;-145.06;100.00;60892.56;4791435;28;19915;-91
2023/03/22 04:44:59;;;;;;;;;;;;;;;-145.06;100.00;60892.56;4795554;28;19914;-90
2023/03/22 04:47:38;;;;;;;;;;;;;;;-145.06;100.00;60892.56;4790801;28;20012;-91
2023/03/22 04:50:17;;;;;;;;;;;;;;;-145.06;100.00;60892.56;4788999;28;19914;-88
2023/03/22 04:52:57;;;;;;;;;;;;;;;-145.06;100.00;60892.56;4794428;28;19922;-90
2023/03/22 04:55:36;;;;;;;;;;;;;;;-145.06;100.00;60892.56;4796072;28;19918;-90
2023/03/22 04:58:16;;;;;;;;;;;;;;;-145.06;100.00;60892.56;4793839;28;20510;-90
2023/03/22 05:00:54;;;;;;;;;;;;;;;-145.06;100.00;60892.56;4793933;28;19918;-90
2023/03/22 05:03:34;;;;;;;;;;;;;;;-145.06;100.00;60892.56;4804669;28;20017;-89
2023/03/22 05:06:13;;;;;;;;;;;;;;;-145.06;100.00;60892.56;4787158;28;19918;-90
2023/03/22 05:08:52;;;;;;;;;;;;;;;-145.06;100.00;60892.56;4793693;28;19918;-90
2023/03/22 05:11:31;;;;;;;;;;;;;;;-145.06;100.00;60892.56;4792861;28;20384;-90
2023/03/22 05:14:10;;;;;;;;;;;;;;;-145.06;100.00;60892.56;4795039;28;20232;-90
2023/03/22 05:16:49;;;;;;;;;;;;;;;-145.06;100.00;60892.56;4791346;28;19918;-89
2023/03/22 05:19:28;;;;;;;;;;;;;;;-145.06;100.00;60892.56;4781997;28;19918;-90
2023/03/22 05:22:10;;;;;;;;;;;;;;;-145.06;100.00;60892.56;4787211;28;19918;-90
2023/03/22 05:25:05;;;;;;;;;;;;;;;-145.06;100.00;60892.56;4795840;28;19918;-91
2023/03/22 05:27:44;;;;;;;;;;;;;;;-145.06;100.00;60892.56;4794948;28;19918;-89
2023/03/22 05:30:23;;;;;;;;;;;;;;;-145.06;100.00;60892.56;4809703;28;19918;-91
2023/03/22 05:33:05;;;;;;;;;;;;;;;-145.06;100.00;60892.56;4790312;28;19961;-91
2023/03/22 05:35:45;;;;;;;;;;;;;;;-145.06;100.00;60892.56;4805791;28;19926;-89
2023/03/22 05:38:24;;;;;;;;;;;;;;;-145.06;100.00;60892.56;4799172;23;19931;-90
2023/03/22 05:41:44;;;;;;;;;;;;;;;-145.06;100.00;60892.56;4745506;29;19923;-89
2023/03/22 05:44:23;;;;;;;;;;;;;;;-145.06;100.00;60892.56;4769247;29;20429;-89
2023/03/22 05:47:27;;;;;;;;;;;;;;;-145.06;100.00;60892.56;4753940;29;19923;-90
2023/03/22 05:50:10;;;;;;;;;;;;;;;-145.06;100.00;60892.56;4751894;29;20019;-90
2023/03/22 05:52:52;;;;;;;;;;;;;;;-145.06;100.00;60892.56;4748454;29;19922;-90
2023/03/22 05:55:34;;;;;;;;;;;;;;;-145.06;100.00;60892.56;4754918;29;19919;-90
2023/03/22 05:58:17;;;;;;;;;;;;;;;-145.06;100.00;60892.56;4753004;29;20258;-90
2023/03/22 06:01:19;;;;;;;;;;;;;;;-145.06;100.00;60892.56;4751726;29;19919;-91
2023/03/22 06:03:58;;;;;;;;;;;;;;;-145.06;100.00;60892.56;4776134;28;19919;-89
2023/03/22 06:06:37;;;;;;;;;;;;;;;-145.06;100.00;60892.56;4751319;29;19950;-91
2023/03/22 06:09:16;;;;;;;;;;;;;;;-145.06;100.00;60892.56;4756356;29;19919;-89
2023/03/22 06:11:55;;;;;;;;;;;;;;;-145.06;100.00;60892.56;4772993;28;19923;-90
2023/03/22 06:14:34;;;;;;;;;;;;;;;-145.06;100.00;60892.56;4754824;29;19922;-91
2023/03/22 06:17:16;;;;;;;;;;;;;;;-145.06;100.00;60892.56;4747183;29;19954;-91
2023/03/22 06:20:18;;;;;;;;;;;;;;;;;;;;;
2023/03/22 06:26:36;;;;;;;;;;;;;;;-145.06;100.00;60892.56;4775183;28;19915;-90
2023/03/22 06:29:39;;;;;;;;;;;;;;;-145.06;100.00;60892.56;4755107;29;19958;-90
2023/03/22 06:32:27;;;;;;;;;;;;;;;-145.06;100.00;60892.56;4749738;29;19922;-90
2023/03/22 06:35:10;;;;;;;;;;;;;;;-145.06;100.00;60892.56;4758532;29;20017;-90
2023/03/22 06:37:52;;;;;;;;;;;;;;;-145.06;100.00;60892.56;4763625;29;19922;-89
2023/03/22 06:40:37;;;;;;;;;;;;;;;-145.06;100.00;60892.56;4756304;29;19923;-91
2023/03/22 06:43:29;;;;;;;;;;;;;;;;;;;;;
2023/03/22 06:46:29;;;;;;;;;;;;;;;-145.06;100.00;60892.56;4783571;28;20021;-92
2023/03/22 06:49:13;;;;;;;;;;;;;;;-145.06;100.00;60892.56;4755392;29;19919;-90
2023/03/22 06:52:08;;;;;;;;;;;;;;;-145.06;100.00;60892.56;4755621;29;20326;-91
2023/03/22 06:54:55;;;;;;;;;;;;;;;-145.06;100.00;60892.56;4755385;29;20329;-90
2023/03/22 06:57:46;;;;;;;;;;;;;;;-145.06;100.00;60892.56;4764963;29;20014;-91
2023/03/22 07:00:33;;;;;;;;;;;;;;;-145.06;100.00;60892.56;4755110;29;19923;-91
2023/03/22 07:03:14;;;;;;;;;;;;;;;-145.06;100.00;60892.56;4761982;29;19950;-88
2023/03/22 07:09:26;;;;;;;;;;;;;;;-145.06;100.00;60892.56;4755840;29;19919;-91
2023/03/22 07:12:22;;;;;;;;;;;;;;;-145.06;100.00;60892.56;4778392;28;20250;-90
2023/03/22 07:18:30;;;;;;;;;;;;;;;;;;;;;
2023/03/22 07:21:28;;;;;;;;;;;;;;;-145.06;100.00;60892.56;4714864;29;19920;-91
2023/03/22 07:24:30;;;;;;;;;;;;;;;-145.06;100.00;60892.56;4715223;29;19919;-90
2023/03/22 07:27:27;;;;;;;;;;;;;;;;;;;;;
2023/03/22 07:30:20;;;;;;;;;;;;;;;-145.06;100.00;60892.56;4775085;29;19922;-91
2023/03/22 07:36:22;;;;;;;;;;;;;;;-145.06;100.00;60892.56;4704574;29;19974;-91
2023/03/22 07:39:07;;;;;;;;;;;;;;;-145.06;100.00;60892.56;4712215;29;19928;-91
2023/03/22 07:41:49;;;;;;;;;;;;;;;-145.06;100.00;60892.56;4758480;29;19922;-90
2023/03/22 07:44:38;;;;;;;;;;;;;;;-145.06;100.00;60892.56;4757804;29;20333;-92
2023/03/22 07:47:23;;;;;;;;;;;;;;;-145.06;100.00;60892.56;4757383;29;19922;-90
2023/03/22 07:50:08;;;;;;;;;;;;;;;-145.06;100.00;60892.56;4757741;29;19918;-92
2023/03/22 07:52:50;;;;;;;;;;;;;;;-145.06;100.00;60892.56;4766984;29;20002;-89
2023/03/22 07:55:34;;;;;;;;;;;;;;;-145.06;100.00;60892.56;4769473;29;19978;-91
2023/03/22 07:58:18;;;;;;;;;;;;;;;-145.06;100.00;60892.56;4744602;29;19923;-92
2023/03/22 08:01:23;;;;;;;;;;;;;;;-145.06;100.00;60892.56;4758559;29;19954;-90
2023/03/22 08:04:11;;;;;;;;;;;;;;;-145.06;100.00;60892.56;4749302;29;20021;-91
2023/03/22 08:06:53;;;;;;;;;;;;;;;-145.06;100.00;60892.56;4751710;29;19982;-92
2023/03/22 08:09:49;;;;;;;;;;;;;;;;;;;;;
2023/03/22 08:12:50;;;;;;;;;;;;;;;-145.06;100.00;60892.56;4775878;28;19923;-90
2023/03/22 08:15:47;;;;;;;;;;;;;;;;;;;;;
2023/03/22 08:18:32;;;;;;;;;;;;;;;-145.06;100.00;60892.56;4766484;29;20258;-91
2023/03/22 08:24:43;;;;;;;;;;;;;;;-145.06;100.00;60892.56;4756215;29;19978;-89
2023/03/22 08:27:44;;;;;;;;;;;;;;;-145.06;100.00;60892.56;4735407;29;19927;-90
2023/03/22 08:30:24;;;;;;;;;;;;;;;-145.06;100.00;60892.56;4751197;29;19919;-90
2023/03/22 08:33:03;;;;;;;;;;;;;;;-145.06;100.00;60892.56;4777522;28;19926;-90
2023/03/22 08:35:47;;;;;;;;;;;;;;;-145.06;100.00;60892.56;4763088;29;20275;-91
2023/03/22 08:38:26;;;;;;;;;;;;;;;-145.06;100.00;60892.56;4752072;29;19923;-89
2023/03/22 08:41:05;;;;;;;;;;;;;;;-145.06;100.00;60892.56;4755530;29;19922;-91
2023/03/22 08:43:47;;;;;;;;;;;;;;;-145.06;100.00;60892.56;4738852;29;19919;-89
2023/03/22 08:46:27;;;;;;;;;;;;;;;-145.06;100.00;60892.56;4767011;29;19919;-90
2023/03/22 08:49:05;;;;;;;;;;;;;;;-145.06;100.00;60892.56;4754586;29;19927;-90
2023/03/22 08:51:45;;;;;;;;;;;;;;;-145.06;100.00;60892.56;4755354;29;19923;-89
2023/03/22 08:54:26;;;;;;;;;;;;;;;-145.06;100.00;60892.56;4742396;29;19994;-90
2023/03/22 08:57:08;;;;;;;;;;;;;;;-145.06;100.00;60892.56;4737256;29;19919;-90
2023/03/22 08:59:47;;;;;;;;;;;;;;;-145.06;100.00;60892.56;4737665;29;19916;-90
2023/03/22 09:02:26;;;;;;;;;;;;;;;-145.06;100.00;60892.56;4786476;28;19918;-90
2023/03/22 09:05:06;;;;;;;;;;;;;;;-145.06;100.00;60892.56;4753683;29;19915;-89
2023/03/22 09:07:44;;;;;;;;;;;;;;;-145.06;100.00;60892.56;4742957;29;19915;-91
2023/03/22 09:10:24;;;;;;;;;;;;;;;-145.06;100.00;60892.56;4752611;29;19915;-90
2023/03/22 09:13:02;;;;;;;;;;;;;;;-145.06;100.00;60892.56;4755364;29;20266;-89
2023/03/22 09:15:44;;;;;;;;;;;;;;;-145.06;100.00;60892.56;4756120;29;20342;-90
2023/03/22 09:18:24;;;;;;;;;;;;;;;-145.06;100.00;60892.56;4755206;29;19915;-89
2023/03/22 09:21:04;;;;;;;;;;;;;;;-145.06;100.00;60892.56;4768581;29;19918;-91
2023/03/22 09:23:46;;;;;;;;;;;;;;;-145.06;100.00;60892.56;4755335;29;19914;-89
2023/03/22 09:26:25;;;;;;;;;;;;;;;-145.06;100.00;60892.56;4750526;29;20104;-89
2023/03/22 09:29:05;;;;;;;;;;;;;;;-145.06;100.00;60892.56;4753407;29;19969;-90
2023/03/22 09:31:47;;;;;;;;;;;;;;;-145.06;100.00;60892.56;4756600;29;19915;-90
2023/03/22 09:34:26;;;;;;;;;;;;;;;-145.06;100.00;60892.56;4755705;29;19919;-89
2023/03/22 09:37:05;;;;;;;;;;;;;;;-145.06;100.00;60892.56;4761139;29;19923;-90
2023/03/22 09:39:44;;;;;;;;;;;;;;;-145.06;100.00;60892.56;4755047;29;20386;-90
2023/03/22 09:42:32;;;;;;;;;;;;;;;-145.06;100.00;60892.56;4755476;29;20247;-90
2023/03/22 09:45:24;;;;;;;;;;;;;;;-145.06;100.00;60892.56;4768788;29;19915;-91
2023/03/22 09:48:07;;;;;;;;;;;;;;;-145.06;100.00;60892.56;4773256;29;20017;-89
2023/03/22 09:50:48;;;;;;;;;;;;;;;-145.06;100.00;60892.56;4768953;29;19918;-90
2023/03/22 09:53:28;;;;;;;;;;;;;;;-145.06;100.00;60892.56;4755569;29;19966;-91
2023/03/22 09:56:19;;;;;;;;;;;;;;;-145.06;100.00;60892.56;4737060;29;19915;-90
2023/03/22 09:59:14;;;;;;;;;;;;;;;-145.06;100.00;60892.56;4767313;29;20001;-90
2023/03/22 10:02:10;;;;;;;;;;;;;;;-145.06;100.00;60892.56;4768325;29;19915;-89
2023/03/22 10:05:15;;;;;;;;;;;;;;;-145.06;100.00;60892.56;4764184;29;20251;-89
2023/03/22 10:07:57;;;;;;;;;;;;;;;-145.06;100.00;60892.56;4744855;29;20217;-91
2023/03/22 10:10:40;;;;;;;;;;;;;;;-145.06;100.00;60892.56;4753077;29;19918;-89
2023/03/22 10:13:28;;;;;;;;;;;;;;;-145.06;100.00;60892.56;4749118;29;19923;-89
2023/03/22 10:16:13;;;;;;;;;;;;;;;-145.06;100.00;60892.56;4754983;29;19998;-90
2023/03/22 10:18:55;;;;;;;;;;;;;;;-145.06;100.00;60892.56;4768277;29;19919;-90
2023/03/22 10:21:34;;;;;;;;;;;;;;;-145.06;100.00;60892.56;4768868;29;20355;-91
2023/03/22 10:24:16;;;;;;;;;;;;;;;-145.06;100.00;60892.56;4775667;29;19922;-90
2023/03/22 10:26:55;;;;;;;;;;;;;;;-145.06;100.00;60892.56;4755147;29;19915;-91
2023/03/22 10:29:39;;;;;;;;;;;;;;;-145.06;100.00;60892.56;4753386;29;19919;-90
2023/03/22 10:32:23;;;;;;;;;;;;;;;-145.06;100.00;60892.56;4753851;29;19919;-90
2023/03/22 10:35:03;;;;;;;;;;;;;;;-145.06;100.00;60892.56;4756899;29;19915;-90
2023/03/22 10:37:43;;;;;;;;;;;;;;;-145.06;100.00;60892.56;4747844;29;19919;-90
2023/03/22 10:40:34;;;;;;;;;;;;;;;-145.06;100.00;60892.56;4749064;29;19919;-90
2023/03/22 10:43:28;;;;;;;;;;;;;;;-145.06;100.00;60892.56;4753819;29;19919;-89
2023/03/22 10:46:14;;;;;;;;;;;;;;;-145.06;100.00;60892.56;4744491;29;19915;-89
2023/03/22 10:48:57;;;;;;;;;;;;;;;-145.06;100.00;60892.56;4755335;29;19918;-90
2023/03/22 10:51:42;;;;;;;;;;;;;;;-145.06;100.00;60892.56;4767378;29;20353;-90
2023/03/22 10:54:23;;;;;;;;;;;;;;;-145.06;100.00;60892.56;4748838;29;19919;-90
2023/03/22 10:57:02;;;;;;;;;;;;;;;-145.06;100.00;60892.56;4752954;29;19923;-90
2023/03/22 10:59:41;;;;;;;;;;;;;;;-145.06;100.00;60892.56;4736302;29;19919;-89
2023/03/22 11:02:31;;;;;;;;;;;;;;;-145.06;100.00;60892.56;4736097;29;19919;-90
2023/03/22 11:05:17;;;;;;;;;;;;;;;-145.06;100.00;60892.56;4748546;29;20009;-90
2023/03/22 11:07:57;;;;;;;;;;;;;;;-145.06;100.00;60892.56;4767669;29;20013;-90
2023/03/22 11:10:36;;;;;;;;;;;;;;;-145.06;100.00;60892.56;4774300;29;19915;-89
2023/03/22 11:13:18;;;;;;;;;;;;;;;-145.06;100.00;60892.56;4736787;29;19923;-91
2023/03/22 11:16:01;;;;;;;;;;;;;;;-145.06;100.00;60892.56;4747867;29;19915;-90
2023/03/22 11:18:40;;;;;;;;;;;;;;;-145.06;100.00;60892.56;4752614;29;19978;-91
2023/03/22 11:21:23;;;;;;;;;;;;;;;-145.06;100.00;60892.56;4754299;29;20369;-89
2023/03/22 11:24:04;;;;;;;;;;;;;;;-145.06;100.00;60892.56;4774218;29;19918;-91
2023/03/22 11:27:00;;;;;;;;;;;;;;;-145.06;100.00;60892.56;4753434;29;20014;-89
2023/03/22 11:29:44;;;;;;;;;;;;;;;-145.06;100.00;60892.56;4761868;29;19915;-90
2023/03/22 11:32:28;;;;;;;;;;;;;;;-145.06;100.00;60892.56;4750198;29;20005;-89
2023/03/22 11:35:12;;;;;;;;;;;;;;;-145.06;100.00;60892.56;4767693;29;19915;-89
2023/03/22 11:37:52;;;;;;;;;;;;;;;-145.06;100.00;60892.56;4753061;29;19915;-90
2023/03/22 11:40:51;;;;;;;;;;;;;;;-145.06;100.00;60892.56;4767187;29;19919;-90
2023/03/22 11:43:31;;;;;;;;;;;;;;;-145.06;100.00;60892.56;4748540;29;19983;-89
2023/03/22 11:46:11;;;;;;;;;;;;;;;-145.06;100.00;60892.56;4746169;29;19923;-89
2023/03/22 11:48:51;;;;;;;;;;;;;;;-145.06;100.00;60892.56;4741671;29;19918;-89
2023/03/22 11:51:33;;;;;;;;;;;;;;;-145.06;100.00;60892.56;4753334;29;19922;-89
2023/03/22 11:54:29;;;;;;;;;;;;;;;-145.06;100.00;60892.56;4763645;29;19975;-89
2023/03/22 11:57:12;;;;;;;;;;;;;;;-145.06;100.00;60892.56;4746606;29;19914;-89
2023/03/22 12:00:00;;;;;;;;;;;;;;;-145.06;100.00;60892.56;4760198;29;20254;-90
2023/03/22 12:02:47;;;;;;;;;;;;;;;-145.06;100.00;60892.56;4748768;29;19927;-91
2023/03/22 12:05:27;;;;;;;;;;;;;;;-145.06;100.00;60892.56;4783633;29;19982;-90
2023/03/22 12:08:26;;;;;;;;;;;;;;;-145.06;100.00;60892.56;4753119;29;19915;-90
2023/03/22 12:11:06;;;;;;;;;;;;;;;-145.06;100.00;60892.56;4749295;29;19926;-90
2023/03/22 12:13:50;;;;;;;;;;;;;;;-145.06;100.00;60892.56;4753048;29;20018;-90
2023/03/22 12:16:39;;;;;;;;;;;;;;;-145.06;100.00;60892.56;4748329;29;19923;-89
2023/03/22 12:19:31;;;;;;;;;;;;;;;-145.06;100.00;60892.56;4753434;29;19914;-90
2023/03/22 12:22:21;;;;;;;;;;;;;;;-145.06;100.00;60892.56;4752618;29;19919;-91
2023/03/22 12:25:02;;;;;;;;;;;;;;;-145.06;100.00;60892.56;4748792;29;19920;-90
2023/03/22 12:27:44;;;;;;;;;;;;;;;-145.06;100.00;60892.56;4771578;29;19915;-91
2023/03/22 12:30:29;;;;;;;;;;;;;;;-145.06;100.00;60892.56;4769716;29;19915;-89
2023/03/22 12:33:14;;;;;;;;;;;;;;;-145.06;100.00;60892.56;4769408;29;19927;-90
2023/03/22 12:35:57;;;;;;;;;;;;;;;-145.06;100.00;60892.56;4756546;29;20660;-90
2023/03/22 12:38:39;;;;;;;;;;;;;;;-145.06;100.00;60892.56;4752216;29;19915;-91
2023/03/22 12:41:25;;;;;;;;;;;;;;;-145.06;100.00;60892.56;4756739;29;19919;-90
2023/03/22 12:44:16;;;;;;;;;;;;;;;-145.06;100.00;60892.56;4769486;29;19923;-90
2023/03/22 12:47:01;;;;;;;;;;;;;;;-145.06;100.00;60892.56;4755118;29;19954;-90
2023/03/22 12:49:42;;;;;;;;;;;;;;;-145.06;100.00;60892.56;4753415;29;19958;-90
2023/03/22 12:52:22;;;;;;;;;;;;;;;-145.06;100.00;60892.56;4765706;29;20270;-89
2023/03/22 12:55:02;;;;;;;;;;;;;;;-145.06;100.00;60892.56;4743212;29;20453;-90
2023/03/22 12:57:41;;;;;;;;;;;;;;;-145.06;100.00;60892.56;4755611;29;20021;-89
2023/03/22 13:00:26;;;;;;;;;;;;;;;-145.06;100.00;60892.56;4770869;29;20205;-90
2023/03/22 13:03:07;;;;;;;;;;;;;;;-145.06;100.00;60892.56;4770659;29;19919;-89
2023/03/22 13:05:49;;;;;;;;;;;;;;;-145.06;100.00;60892.56;4765830;29;19950;-90
2023/03/22 13:08:48;;;;;;;;;;;;;;;-145.06;100.00;60892.56;4765751;29;19918;-90
2023/03/22 13:11:27;;;;;;;;;;;;;;;-145.06;100.00;60892.56;4756341;29;19915;-90
2023/03/22 13:14:06;;;;;;;;;;;;;;;-145.06;100.00;60892.56;4745175;29;20366;-90
2023/03/22 13:16:50;;;;;;;;;;;;;;;-145.06;100.00;60892.56;4746222;29;19927;-92
2023/03/22 13:19:34;;;;;;;;;;;;;;;-145.06;100.00;60892.56;4753716;29;19919;-90
2023/03/22 13:22:18;;;;;;;;;;;;;;;-145.06;100.00;60892.56;4768753;29;19923;-90
2023/03/22 13:24:58;;;;;;;;;;;;;;;-145.06;100.00;60892.56;4753917;29;19915;-90
2023/03/22 13:27:41;;;;;;;;;;;;;;;-145.06;100.00;60892.56;4742509;29;19925;-90
2023/03/22 13:30:25;;;;;;;;;;;;;;;-145.06;100.00;60892.56;4773449;28;20005;-90
2023/03/22 13:33:07;;;;;;;;;;;;;;;-145.06;100.00;60892.56;4755064;29;19960;-90
2023/03/22 13:36:02;;;;;;;;;;;;;;;-145.06;100.00;60892.56;4764648;29;19919;-90
2023/03/22 13:38:41;;;;;;;;;;;;;;;-145.06;100.00;60892.56;4781181;28;19919;-89
2023/03/22 13:41:31;;;;;;;;;;;;;;;-145.06;100.00;60892.56;4767772;29;20424;-89
2023/03/22 13:44:25;;;;;;;;;;;;;;;-145.06;100.00;60892.56;4769324;29;19919;-89
2023/03/22 13:47:06;;;;;;;;;;;;;;;-145.06;100.00;60892.56;4768847;29;19922;-89
2023/03/22 13:49:48;;;;;;;;;;;;;;;-145.06;100.00;60892.56;4748222;29;19923;-92
2023/03/22 13:52:39;;;;;;;;;;;;;;;-145.06;100.00;60892.56;4759203;29;19924;-90
2023/03/22 13:55:39;;;;;;;;;;;;;;;-145.06;100.00;60892.56;4774958;28;19918;-89
2023/03/22 13:58:44;;;;;;;;;;;;;;;-145.06;100.00;60892.56;4941487;27;19958;-89
2023/03/22 14:01:26;;;;;;;;;;;;;;;-145.06;100.00;60892.56;4916360;28;19916;-90
2023/03/22 14:04:09;;;;;;;;;;;;;;;-145.06;100.00;60892.56;4915701;28;20401;-91
2023/03/22 14:06:53;;;;;;;;;;;;;;;-145.06;100.00;60892.56;4909789;28;20251;-89